sensor_id;sensor_type;location;lat;lon;timestamp;P1;durP1;ratioP1;P2;durP2;ratioP2
60306;SDS011;46155;52.364;6.580;2023-05-07T03:02:46;45.87;;;40.77;;
60306;SDS011;46155;52.364;6.580;2023-05-07T03:05:11;41.63;;;37.63;;
60306;SDS011;46155;52.364;6.580;2023-05-07T03:07:37;45.00;;;40.20;;
60306;SDS011;46155;52.364;6.580;2023-05-07T03:10:03;45.00;;;40.40;;
60306;SDS011;46155;52.364;6.580;2023-05-07T03:12:29;45.40;;;40.73;;
60306;SDS011;46155;52.364;6.580;2023-05-07T03:14:55;42.80;;;38.33;;
60306;SDS011;46155;52.364;6.580;2023-05-07T03:17:20;44.73;;;40.17;;
60306;SDS011;46155;52.364;6.580;2023-05-07T03:19:46;47.90;;;40.17;;
60306;SDS011;46155;52.364;6.580;2023-05-07T03:22:11;41.40;;;37.27;;
60306;SDS011;46155;52.364;6.580;2023-05-07T03:24:37;44.90;;;40.50;;
60306;SDS011;46155;52.364;6.580;2023-05-07T03:27:02;48.00;;;39.30;;
60306;SDS011;46155;52.364;6.580;2023-05-07T03:29:27;44.80;;;38.53;;
60306;SDS011;46155;52.364;6.580;2023-05-07T03:31:53;45.70;;;41.03;;
60306;SDS011;46155;52.364;6.580;2023-05-07T03:34:18;45.57;;;40.57;;
60306;SDS011;46155;52.364;6.580;2023-05-07T03:36:47;41.90;;;37.70;;
60306;SDS011;46155;52.364;6.580;2023-05-07T03:39:13;43.70;;;39.17;;
60306;SDS011;46155;52.364;6.580;2023-05-07T03:41:38;44.40;;;39.43;;
60306;SDS011;46155;52.364;6.580;2023-05-07T03:44:03;43.33;;;39.03;;
60306;SDS011;46155;52.364;6.580;2023-05-07T03:46:29;42.90;;;38.43;;
60306;SDS011;46155;52.364;6.580;2023-05-07T03:48:54;43.37;;;37.60;;
60306;SDS011;46155;52.364;6.580;2023-05-07T03:51:19;43.87;;;38.67;;
60306;SDS011;46155;52.364;6.580;2023-05-07T03:53:45;43.00;;;38.30;;
60306;SDS011;46155;52.364;6.580;2023-05-07T03:56:10;39.67;;;35.47;;
60306;SDS011;46155;52.364;6.580;2023-05-07T03:58:35;44.27;;;39.50;;
60306;SDS011;46155;52.364;6.580;2023-05-07T04:01:01;43.47;;;38.77;;
60306;SDS011;46155;52.364;6.580;2023-05-07T04:03:26;47.07;;;38.33;;
60306;SDS011;46155;52.364;6.580;2023-05-07T04:05:51;44.37;;;39.73;;
60306;SDS011;46155;52.364;6.580;2023-05-07T04:08:17;39.47;;;35.27;;
60306;SDS011;46155;52.364;6.580;2023-05-07T04:10:42;44.67;;;37.00;;
60306;SDS011;46155;52.364;6.580;2023-05-07T04:13:07;45.60;;;37.00;;
60306;SDS011;46155;52.364;6.580;2023-05-07T04:15:32;49.43;;;38.23;;
60306;SDS011;46155;52.364;6.580;2023-05-07T04:17:58;40.90;;;35.67;;
60306;SDS011;46155;52.364;6.580;2023-05-07T04:20:23;43.30;;;35.63;;
60306;SDS011;46155;52.364;6.580;2023-05-07T04:22:48;39.43;;;35.13;;
60306;SDS011;46155;52.364;6.580;2023-05-07T04:25:14;42.97;;;35.47;;
60306;SDS011;46155;52.364;6.580;2023-05-07T04:27:41;39.50;;;33.57;;
60306;SDS011;46155;52.364;6.580;2023-05-07T04:30:06;44.97;;;37.40;;
60306;SDS011;46155;52.364;6.580;2023-05-07T04:32:32;48.57;;;35.60;;
60306;SDS011;46155;52.364;6.580;2023-05-07T04:34:57;39.50;;;34.63;;
60306;SDS011;46155;52.364;6.580;2023-05-07T04:37:22;40.80;;;34.63;;
60306;SDS011;46155;52.364;6.580;2023-05-07T04:39:48;40.93;;;33.33;;
60306;SDS011;46155;52.364;6.580;2023-05-07T04:42:17;39.13;;;34.77;;
60306;SDS011;46155;52.364;6.580;2023-05-07T04:44:43;39.53;;;33.90;;
60306;SDS011;46155;52.364;6.580;2023-05-07T04:47:10;41.80;;;33.63;;
60306;SDS011;46155;52.364;6.580;2023-05-07T04:49:36;42.07;;;37.20;;
60306;SDS011;46155;52.364;6.580;2023-05-07T04:52:01;47.10;;;36.73;;
60306;SDS011;46155;52.364;6.580;2023-05-07T04:54:28;43.33;;;34.33;;
60306;SDS011;46155;52.364;6.580;2023-05-07T04:56:53;48.23;;;34.97;;
60306;SDS011;46155;52.364;6.580;2023-05-07T04:59:18;43.53;;;33.20;;
60306;SDS011;46155;52.364;6.580;2023-05-07T05:01:44;44.37;;;35.23;;
60306;SDS011;46155;52.364;6.580;2023-05-07T05:04:09;46.97;;;38.37;;
60306;SDS011;46155;52.364;6.580;2023-05-07T05:06:35;45.77;;;35.13;;
60306;SDS011;46155;52.364;6.580;2023-05-07T05:09:00;46.10;;;35.87;;
60306;SDS011;46155;52.364;6.580;2023-05-07T05:11:25;47.23;;;37.00;;
60306;SDS011;46155;52.364;6.580;2023-05-07T05:13:51;52.63;;;35.90;;
60306;SDS011;46155;52.364;6.580;2023-05-07T05:16:16;48.77;;;36.03;;
60306;SDS011;46155;52.364;6.580;2023-05-07T05:18:41;50.13;;;35.13;;
60306;SDS011;46155;52.364;6.580;2023-05-07T05:21:07;48.43;;;36.13;;
60306;SDS011;46155;52.364;6.580;2023-05-07T05:23:32;47.43;;;36.73;;
60306;SDS011;46155;52.364;6.580;2023-05-07T05:25:57;50.17;;;36.47;;
60306;SDS011;46155;52.364;6.580;2023-05-07T05:28:23;45.10;;;35.40;;
60306;SDS011;46155;52.364;6.580;2023-05-07T05:30:49;46.50;;;36.87;;
60306;SDS011;46155;52.364;6.580;2023-05-07T05:33:14;56.63;;;38.07;;
60306;SDS011;46155;52.364;6.580;2023-05-07T05:35:40;44.87;;;34.17;;
60306;SDS011;46155;52.364;6.580;2023-05-07T05:38:05;57.67;;;36.23;;
60306;SDS011;46155;52.364;6.580;2023-05-07T05:40:31;48.13;;;36.00;;
60306;SDS011;46155;52.364;6.580;2023-05-07T05:42:56;56.73;;;36.20;;
60306;SDS011;46155;52.364;6.580;2023-05-07T05:45:22;58.87;;;38.13;;
60306;SDS011;46155;52.364;6.580;2023-05-07T05:47:47;47.40;;;37.00;;
60306;SDS011;46155;52.364;6.580;2023-05-07T05:50:12;45.30;;;34.53;;
60306;SDS011;46155;52.364;6.580;2023-05-07T05:52:38;45.07;;;36.23;;
60306;SDS011;46155;52.364;6.580;2023-05-07T05:55:03;52.40;;;37.80;;
60306;SDS011;46155;52.364;6.580;2023-05-07T05:57:29;49.33;;;36.43;;
60306;SDS011;46155;52.364;6.580;2023-05-07T05:59:54;56.33;;;37.80;;
60306;SDS011;46155;52.364;6.580;2023-05-07T06:02:20;51.63;;;33.93;;
60306;SDS011;46155;52.364;6.580;2023-05-07T06:04:45;53.17;;;38.73;;
60306;SDS011;46155;52.364;6.580;2023-05-07T06:07:10;51.70;;;37.60;;
60306;SDS011;46155;52.364;6.580;2023-05-07T06:09:36;55.07;;;38.37;;
60306;SDS011;46155;52.364;6.580;2023-05-07T06:12:01;49.43;;;36.23;;
60306;SDS011;46155;52.364;6.580;2023-05-07T06:14:27;56.27;;;37.60;;
60306;SDS011;46155;52.364;6.580;2023-05-07T06:16:52;50.90;;;36.73;;
60306;SDS011;46155;52.364;6.580;2023-05-07T06:19:17;46.43;;;36.90;;
60306;SDS011;46155;52.364;6.580;2023-05-07T06:21:47;48.10;;;35.90;;
60306;SDS011;46155;52.364;6.580;2023-05-07T06:24:13;55.23;;;38.10;;
60306;SDS011;46155;52.364;6.580;2023-05-07T06:26:38;49.17;;;38.50;;
60306;SDS011;46155;52.364;6.580;2023-05-07T06:29:03;53.47;;;37.20;;
60306;SDS011;46155;52.364;6.580;2023-05-07T06:31:29;50.67;;;35.40;;
60306;SDS011;46155;52.364;6.580;2023-05-07T06:33:58;54.57;;;37.97;;
60306;SDS011;46155;52.364;6.580;2023-05-07T06:36:24;47.97;;;35.30;;
60306;SDS011;46155;52.364;6.580;2023-05-07T06:38:49;46.83;;;35.03;;
60306;SDS011;46155;52.364;6.580;2023-05-07T06:41:14;52.13;;;35.57;;
60306;SDS011;46155;52.364;6.580;2023-05-07T06:43:39;52.90;;;35.40;;
60306;SDS011;46155;52.364;6.580;2023-05-07T06:46:05;56.10;;;40.27;;
60306;SDS011;46155;52.364;6.580;2023-05-07T06:48:30;50.27;;;37.40;;
60306;SDS011;46155;52.364;6.580;2023-05-07T06:50:56;49.83;;;36.90;;
60306;SDS011;46155;52.364;6.580;2023-05-07T06:53:22;51.13;;;37.63;;
60306;SDS011;46155;52.364;6.580;2023-05-07T06:55:48;52.63;;;35.87;;
60306;SDS011;46155;52.364;6.580;2023-05-07T06:58:13;47.63;;;36.20;;
60306;SDS011;46155;52.364;6.580;2023-05-07T07:00:38;53.43;;;33.77;;
60306;SDS011;46155;52.364;6.580;2023-05-07T07:03:05;51.17;;;36.17;;
60306;SDS011;46155;52.364;6.580;2023-05-07T07:05:31;52.37;;;37.43;;
60306;SDS011;46155;52.364;6.580;2023-05-07T07:07:56;49.57;;;37.97;;
60306;SDS011;46155;52.364;6.580;2023-05-07T07:10:21;48.40;;;36.63;;
60306;SDS011;46155;52.364;6.580;2023-05-07T07:12:47;51.40;;;37.57;;
60306;SDS011;46155;52.364;6.580;2023-05-07T07:15:14;54.57;;;38.40;;
60306;SDS011;46155;52.364;6.580;2023-05-07T07:17:40;53.30;;;38.63;;
60306;SDS011;46155;52.364;6.580;2023-05-07T07:20:05;58.37;;;37.07;;
60306;SDS011;46155;52.364;6.580;2023-05-07T07:22:31;48.83;;;34.20;;
60306;SDS011;46155;52.364;6.580;2023-05-07T07:24:57;47.60;;;34.67;;
60306;SDS011;46155;52.364;6.580;2023-05-07T07:27:22;51.97;;;35.43;;
60306;SDS011;46155;52.364;6.580;2023-05-07T07:29:47;50.77;;;34.60;;
60306;SDS011;46155;52.364;6.580;2023-05-07T07:32:13;47.60;;;31.57;;
60306;SDS011;46155;52.364;6.580;2023-05-07T07:34:38;49.43;;;35.13;;
60306;SDS011;46155;52.364;6.580;2023-05-07T07:37:04;45.10;;;33.03;;
60306;SDS011;46155;52.364;6.580;2023-05-07T07:39:31;48.57;;;32.00;;
60306;SDS011;46155;52.364;6.580;2023-05-07T07:41:57;52.70;;;32.90;;
60306;SDS011;46155;52.364;6.580;2023-05-07T07:44:22;46.53;;;29.50;;
60306;SDS011;46155;52.364;6.580;2023-05-07T07:46:47;46.63;;;30.00;;
60306;SDS011;46155;52.364;6.580;2023-05-07T07:49:13;50.43;;;30.93;;
60306;SDS011;46155;52.364;6.580;2023-05-07T07:51:39;44.40;;;31.10;;
60306;SDS011;46155;52.364;6.580;2023-05-07T07:54:05;47.27;;;31.70;;
60306;SDS011;46155;52.364;6.580;2023-05-07T07:56:31;42.10;;;28.83;;
60306;SDS011;46155;52.364;6.580;2023-05-07T07:58:58;45.37;;;30.57;;
60306;SDS011;46155;52.364;6.580;2023-05-07T08:01:23;48.10;;;33.33;;
60306;SDS011;46155;52.364;6.580;2023-05-07T08:03:48;49.10;;;33.83;;
60306;SDS011;46155;52.364;6.580;2023-05-07T08:06:14;47.53;;;34.13;;
60306;SDS011;46155;52.364;6.580;2023-05-07T08:08:39;41.60;;;32.50;;
60306;SDS011;46155;52.364;6.580;2023-05-07T08:11:04;41.27;;;31.43;;
60306;SDS011;46155;52.364;6.580;2023-05-07T08:13:30;48.00;;;32.20;;
60306;SDS011;46155;52.364;6.580;2023-05-07T08:15:55;44.93;;;31.03;;
60306;SDS011;46155;52.364;6.580;2023-05-07T08:18:20;44.93;;;32.37;;
60306;SDS011;46155;52.364;6.580;2023-05-07T08:20:46;48.10;;;31.43;;
60306;SDS011;46155;52.364;6.580;2023-05-07T08:23:12;44.60;;;31.17;;
60306;SDS011;46155;52.364;6.580;2023-05-07T08:25:37;45.20;;;31.53;;
60306;SDS011;46155;52.364;6.580;2023-05-07T08:28:02;42.90;;;30.60;;
60306;SDS011;46155;52.364;6.580;2023-05-07T08:30:28;44.03;;;31.27;;
60306;SDS011;46155;52.364;6.580;2023-05-07T08:32:53;43.07;;;31.70;;
60306;SDS011;46155;52.364;6.580;2023-05-07T08:35:19;46.33;;;31.23;;
60306;SDS011;46155;52.364;6.580;2023-05-07T08:37:44;45.87;;;31.70;;
60306;SDS011;46155;52.364;6.580;2023-05-07T08:40:09;49.37;;;32.60;;
60306;SDS011;46155;52.364;6.580;2023-05-07T08:42:35;48.13;;;31.73;;
60306;SDS011;46155;52.364;6.580;2023-05-07T08:45:04;47.30;;;32.20;;
60306;SDS011;46155;52.364;6.580;2023-05-07T08:47:38;45.03;;;30.80;;
60306;SDS011;46155;52.364;6.580;2023-05-07T08:50:08;42.60;;;29.10;;
60306;SDS011;46155;52.364;6.580;2023-05-07T08:52:34;40.17;;;29.10;;
60306;SDS011;46155;52.364;6.580;2023-05-07T08:55:00;46.43;;;29.40;;
60306;SDS011;46155;52.364;6.580;2023-05-07T08:57:27;43.10;;;30.07;;
60306;SDS011;46155;52.364;6.580;2023-05-07T08:59:53;45.77;;;31.60;;
60306;SDS011;46155;52.364;6.580;2023-05-07T09:02:18;46.17;;;29.87;;
60306;SDS011;46155;52.364;6.580;2023-05-07T09:04:43;46.27;;;29.40;;
60306;SDS011;46155;52.364;6.580;2023-05-07T09:07:09;41.80;;;30.47;;
60306;SDS011;46155;52.364;6.580;2023-05-07T09:09:34;43.07;;;28.93;;
60306;SDS011;46155;52.364;6.580;2023-05-07T09:11:59;41.73;;;28.97;;
60306;SDS011;46155;52.364;6.580;2023-05-07T09:14:25;45.47;;;29.23;;
60306;SDS011;46155;52.364;6.580;2023-05-07T09:16:53;42.13;;;29.87;;
60306;SDS011;46155;52.364;6.580;2023-05-07T09:19:25;43.97;;;29.37;;
60306;SDS011;46155;52.364;6.580;2023-05-07T09:21:58;45.90;;;29.53;;
60306;SDS011;46155;52.364;6.580;2023-05-07T09:24:25;44.93;;;29.27;;
60306;SDS011;46155;52.364;6.580;2023-05-07T09:26:50;43.70;;;30.53;;
60306;SDS011;46155;52.364;6.580;2023-05-07T09:29:15;42.43;;;29.70;;
60306;SDS011;46155;52.364;6.580;2023-05-07T09:31:42;36.40;;;27.23;;
60306;SDS011;46155;52.364;6.580;2023-05-07T09:34:07;41.60;;;28.70;;
60306;SDS011;46155;52.364;6.580;2023-05-07T09:36:33;38.77;;;28.97;;
60306;SDS011;46155;52.364;6.580;2023-05-07T09:39:01;43.63;;;27.97;;
60306;SDS011;46155;52.364;6.580;2023-05-07T09:41:28;44.67;;;29.67;;
60306;SDS011;46155;52.364;6.580;2023-05-07T09:43:55;40.73;;;28.83;;
60306;SDS011;46155;52.364;6.580;2023-05-07T09:46:22;45.60;;;30.53;;
60306;SDS011;46155;52.364;6.580;2023-05-07T09:48:52;45.53;;;28.63;;
60306;SDS011;46155;52.364;6.580;2023-05-07T09:51:22;38.07;;;26.77;;
60306;SDS011;46155;52.364;6.580;2023-05-07T09:53:53;37.97;;;26.90;;
60306;SDS011;46155;52.364;6.580;2023-05-07T09:56:19;37.77;;;27.60;;
60306;SDS011;46155;52.364;6.580;2023-05-07T09:58:45;41.90;;;28.73;;
60306;SDS011;46155;52.364;6.580;2023-05-07T10:01:12;39.53;;;28.93;;
60306;SDS011;46155;52.364;6.580;2023-05-07T10:03:38;39.30;;;26.93;;
60306;SDS011;46155;52.364;6.580;2023-05-07T10:06:06;39.97;;;26.33;;
60306;SDS011;46155;52.364;6.580;2023-05-07T10:08:33;39.10;;;27.20;;
60306;SDS011;46155;52.364;6.580;2023-05-07T10:11:00;39.87;;;27.63;;
60306;SDS011;46155;52.364;6.580;2023-05-07T10:13:27;40.60;;;26.87;;
60306;SDS011;46155;52.364;6.580;2023-05-07T10:15:54;35.27;;;26.93;;
60306;SDS011;46155;52.364;6.580;2023-05-07T10:18:21;36.00;;;26.13;;
60306;SDS011;46155;52.364;6.580;2023-05-07T10:20:48;40.33;;;26.37;;
60306;SDS011;46155;52.364;6.580;2023-05-07T10:23:18;36.13;;;26.60;;
60306;SDS011;46155;52.364;6.580;2023-05-07T10:25:48;36.93;;;27.13;;
60306;SDS011;46155;52.364;6.580;2023-05-07T10:28:13;39.87;;;26.70;;
60306;SDS011;46155;52.364;6.580;2023-05-07T10:30:48;37.13;;;27.33;;
60306;SDS011;46155;52.364;6.580;2023-05-07T10:33:33;40.33;;;27.57;;
60306;SDS011;46155;52.364;6.580;2023-05-07T10:36:00;37.47;;;26.43;;
60306;SDS011;46155;52.364;6.580;2023-05-07T10:38:29;35.13;;;25.90;;
60306;SDS011;46155;52.364;6.580;2023-05-07T10:40:55;37.43;;;27.10;;
60306;SDS011;46155;52.364;6.580;2023-05-07T10:43:20;36.97;;;25.50;;
60306;SDS011;46155;52.364;6.580;2023-05-07T10:46:08;36.13;;;26.13;;
60306;SDS011;46155;52.364;6.580;2023-05-07T10:51:25;41.23;;;28.10;;
60306;SDS011;46155;52.364;6.580;2023-05-07T10:56:34;41.93;;;28.73;;
60306;SDS011;46155;52.364;6.580;2023-05-07T10:59:45;38.83;;;31.03;;
60306;SDS011;46155;52.364;6.580;2023-05-07T11:04:20;36.70;;;31.57;;
60306;SDS011;46155;52.364;6.580;2023-05-07T11:13:02;41.23;;;30.40;;
60306;SDS011;46155;52.364;6.580;2023-05-07T11:15:11;37.73;;;29.07;;
60306;SDS011;46155;52.364;6.580;2023-05-07T11:17:56;40.33;;;30.93;;
60306;SDS011;46155;52.364;6.580;2023-05-07T11:26:10;39.07;;;28.93;;
60306;SDS011;46155;52.364;6.580;2023-05-07T11:28:39;39.20;;;28.47;;
60306;SDS011;46155;52.364;6.580;2023-05-07T11:31:06;34.87;;;26.90;;
60306;SDS011;46155;52.364;6.580;2023-05-07T11:33:32;35.20;;;25.97;;
60306;SDS011;46155;52.364;6.580;2023-05-07T11:35:59;39.70;;;26.80;;
60306;SDS011;46155;52.364;6.580;2023-05-07T11:38:25;37.43;;;27.27;;
60306;SDS011;46155;52.364;6.580;2023-05-07T11:40:57;35.20;;;26.87;;
60306;SDS011;46155;52.364;6.580;2023-05-07T11:43:25;34.03;;;25.53;;
60306;SDS011;46155;52.364;6.580;2023-05-07T11:45:51;38.63;;;28.67;;
60306;SDS011;46155;52.364;6.580;2023-05-07T11:48:17;38.87;;;24.90;;
60306;SDS011;46155;52.364;6.580;2023-05-07T11:50:53;35.10;;;25.63;;
60306;SDS011;46155;52.364;6.580;2023-05-07T11:53:19;42.37;;;27.13;;
60306;SDS011;46155;52.364;6.580;2023-05-07T11:55:51;35.83;;;23.70;;
60306;SDS011;46155;52.364;6.580;2023-05-07T11:58:20;35.37;;;25.60;;
60306;SDS011;46155;52.364;6.580;2023-05-07T12:00:50;36.73;;;25.47;;
60306;SDS011;46155;52.364;6.580;2023-05-07T12:03:16;40.90;;;24.77;;
60306;SDS011;46155;52.364;6.580;2023-05-07T12:05:43;34.27;;;24.80;;
60306;SDS011;46155;52.364;6.580;2023-05-07T12:08:13;38.93;;;25.40;;
60306;SDS011;46155;52.364;6.580;2023-05-07T12:10:43;37.60;;;25.53;;
60306;SDS011;46155;52.364;6.580;2023-05-07T12:13:18;35.33;;;25.27;;
60306;SDS011;46155;52.364;6.580;2023-05-07T12:15:44;40.10;;;25.93;;
60306;SDS011;46155;52.364;6.580;2023-05-07T12:18:13;35.83;;;24.83;;
60306;SDS011;46155;52.364;6.580;2023-05-07T12:20:39;37.47;;;25.50;;
60306;SDS011;46155;52.364;6.580;2023-05-07T12:23:05;36.60;;;23.87;;
60306;SDS011;46155;52.364;6.580;2023-05-07T12:25:38;38.60;;;24.30;;
60306;SDS011;46155;52.364;6.580;2023-05-07T12:28:05;34.33;;;23.37;;
60306;SDS011;46155;52.364;6.580;2023-05-07T12:30:31;40.80;;;23.83;;
60306;SDS011;46155;52.364;6.580;2023-05-07T12:33:01;40.60;;;24.20;;
60306;SDS011;46155;52.364;6.580;2023-05-07T12:35:27;33.27;;;23.60;;
60306;SDS011;46155;52.364;6.580;2023-05-07T12:37:57;36.60;;;23.60;;
60306;SDS011;46155;52.364;6.580;2023-05-07T12:40:24;31.90;;;22.87;;
60306;SDS011;46155;52.364;6.580;2023-05-07T12:43:00;35.50;;;23.23;;
60306;SDS011;46155;52.364;6.580;2023-05-07T12:45:25;32.80;;;23.47;;
60306;SDS011;46155;52.364;6.580;2023-05-07T12:47:51;32.57;;;23.00;;
60306;SDS011;46155;52.364;6.580;2023-05-07T12:50:16;32.53;;;22.77;;
60306;SDS011;46155;52.364;6.580;2023-05-07T12:52:42;34.67;;;24.23;;
60306;SDS011;46155;52.364;6.580;2023-05-07T12:55:11;32.43;;;23.30;;
60306;SDS011;46155;52.364;6.580;2023-05-07T12:57:39;33.40;;;21.93;;
60306;SDS011;46155;52.364;6.580;2023-05-07T13:00:05;27.73;;;20.63;;
60306;SDS011;46155;52.364;6.580;2023-05-07T13:02:32;28.73;;;20.53;;
60306;SDS011;46155;52.364;6.580;2023-05-07T13:04:58;30.63;;;21.20;;
60306;SDS011;46155;52.364;6.580;2023-05-07T13:07:24;30.20;;;19.40;;
60306;SDS011;46155;52.364;6.580;2023-05-07T13:09:50;30.77;;;21.13;;
60306;SDS011;46155;52.364;6.580;2023-05-07T13:12:15;26.37;;;19.77;;
60306;SDS011;46155;52.364;6.580;2023-05-07T13:14:40;29.53;;;21.13;;
60306;SDS011;46155;52.364;6.580;2023-05-07T13:17:06;26.70;;;20.50;;
60306;SDS011;46155;52.364;6.580;2023-05-07T13:19:31;29.30;;;21.20;;
60306;SDS011;46155;52.364;6.580;2023-05-07T13:21:56;25.27;;;20.37;;
60306;SDS011;46155;52.364;6.580;2023-05-07T13:24:21;31.80;;;21.13;;
60306;SDS011;46155;52.364;6.580;2023-05-07T13:26:47;26.63;;;19.77;;
60306;SDS011;46155;52.364;6.580;2023-05-07T13:29:12;23.60;;;18.93;;
60306;SDS011;46155;52.364;6.580;2023-05-07T13:31:37;29.03;;;20.43;;
60306;SDS011;46155;52.364;6.580;2023-05-07T13:34:07;27.10;;;19.73;;
60306;SDS011;46155;52.364;6.580;2023-05-07T13:36:32;26.33;;;19.47;;
60306;SDS011;46155;52.364;6.580;2023-05-07T13:39:00;23.97;;;18.37;;
60306;SDS011;46155;52.364;6.580;2023-05-07T13:41:26;23.70;;;19.57;;
60306;SDS011;46155;52.364;6.580;2023-05-07T13:43:51;26.53;;;19.17;;
60306;SDS011;46155;52.364;6.580;2023-05-07T13:46:16;27.03;;;19.37;;
60306;SDS011;46155;52.364;6.580;2023-05-07T13:48:42;26.20;;;18.60;;
60306;SDS011;46155;52.364;6.580;2023-05-07T13:51:07;24.60;;;18.57;;
60306;SDS011;46155;52.364;6.580;2023-05-07T13:53:32;27.13;;;19.37;;
60306;SDS011;46155;52.364;6.580;2023-05-07T13:55:57;24.20;;;17.70;;
60306;SDS011;46155;52.364;6.580;2023-05-07T13:58:23;22.87;;;18.83;;
60306;SDS011;46155;52.364;6.580;2023-05-07T14:00:48;26.03;;;17.50;;
60306;SDS011;46155;52.364;6.580;2023-05-07T14:03:13;25.53;;;18.30;;
60306;SDS011;46155;52.364;6.580;2023-05-07T14:05:39;23.00;;;18.10;;
60306;SDS011;46155;52.364;6.580;2023-05-07T14:08:04;23.47;;;18.20;;
60306;SDS011;46155;52.364;6.580;2023-05-07T14:10:30;24.53;;;18.37;;
60306;SDS011;46155;52.364;6.580;2023-05-07T14:12:56;23.60;;;17.63;;
60306;SDS011;46155;52.364;6.580;2023-05-07T14:15:22;22.47;;;17.03;;
60306;SDS011;46155;52.364;6.580;2023-05-07T14:17:47;23.47;;;18.23;;
60306;SDS011;46155;52.364;6.580;2023-05-07T14:20:12;26.93;;;19.37;;
60306;SDS011;46155;52.364;6.580;2023-05-07T14:22:37;23.30;;;16.83;;
60306;SDS011;46155;52.364;6.580;2023-05-07T14:25:03;24.03;;;18.33;;
60306;SDS011;46155;52.364;6.580;2023-05-07T14:27:28;23.53;;;17.73;;
60306;SDS011;46155;52.364;6.580;2023-05-07T14:29:54;22.33;;;16.57;;
60306;SDS011;46155;52.364;6.580;2023-05-07T14:32:20;23.63;;;17.40;;
60306;SDS011;46155;52.364;6.580;2023-05-07T14:34:46;22.93;;;17.87;;
60306;SDS011;46155;52.364;6.580;2023-05-07T14:37:11;20.97;;;16.67;;
60306;SDS011;46155;52.364;6.580;2023-05-07T14:39:37;22.40;;;17.20;;
60306;SDS011;46155;52.364;6.580;2023-05-07T14:42:02;21.70;;;17.63;;
60306;SDS011;46155;52.364;6.580;2023-05-07T14:44:27;21.37;;;16.70;;
60306;SDS011;46155;52.364;6.580;2023-05-07T14:46:53;24.97;;;17.37;;
60306;SDS011;46155;52.364;6.580;2023-05-07T14:49:19;22.57;;;16.30;;
60306;SDS011;46155;52.364;6.580;2023-05-07T14:51:45;22.07;;;16.97;;
60306;SDS011;46155;52.364;6.580;2023-05-07T14:54:11;21.77;;;15.77;;
60306;SDS011;46155;52.364;6.580;2023-05-07T14:56:36;21.67;;;16.53;;
60306;SDS011;46155;52.364;6.580;2023-05-07T14:59:02;22.07;;;17.70;;
60306;SDS011;46155;52.364;6.580;2023-05-07T15:01:28;27.17;;;17.57;;
60306;SDS011;46155;52.364;6.580;2023-05-07T15:03:53;22.03;;;16.70;;
60306;SDS011;46155;52.364;6.580;2023-05-07T15:06:18;18.50;;;15.30;;
60306;SDS011;46155;52.364;6.580;2023-05-07T15:08:44;19.10;;;16.00;;
60306;SDS011;46155;52.364;6.580;2023-05-07T15:11:09;20.73;;;16.33;;
60306;SDS011;46155;52.364;6.580;2023-05-07T15:13:35;17.83;;;15.33;;
60306;SDS011;46155;52.364;6.580;2023-05-07T15:16:00;26.00;;;15.33;;
60306;SDS011;46155;52.364;6.580;2023-05-07T15:18:25;20.33;;;16.33;;
60306;SDS011;46155;52.364;6.580;2023-05-07T15:20:50;21.93;;;16.40;;
60306;SDS011;46155;52.364;6.580;2023-05-07T15:23:16;22.23;;;16.93;;
60306;SDS011;46155;52.364;6.580;2023-05-07T15:25:41;20.93;;;16.03;;
60306;SDS011;46155;52.364;6.580;2023-05-07T15:28:07;17.87;;;15.13;;
60306;SDS011;46155;52.364;6.580;2023-05-07T15:30:33;19.73;;;16.17;;
60306;SDS011;46155;52.364;6.580;2023-05-07T15:32:58;17.47;;;14.83;;
60306;SDS011;46155;52.364;6.580;2023-05-07T15:35:25;17.67;;;15.73;;
60306;SDS011;46155;52.364;6.580;2023-05-07T15:37:50;17.60;;;14.63;;
60306;SDS011;46155;52.364;6.580;2023-05-07T15:40:16;21.07;;;15.63;;
60306;SDS011;46155;52.364;6.580;2023-05-07T15:42:42;20.27;;;14.30;;
60306;SDS011;46155;52.364;6.580;2023-05-07T15:45:08;19.10;;;14.37;;
60306;SDS011;46155;52.364;6.580;2023-05-07T15:47:34;23.60;;;13.93;;
60306;SDS011;46155;52.364;6.580;2023-05-07T15:50:00;17.90;;;15.13;;
60306;SDS011;46155;52.364;6.580;2023-05-07T15:52:26;19.87;;;14.70;;
60306;SDS011;46155;52.364;6.580;2023-05-07T15:54:52;19.83;;;14.53;;
60306;SDS011;46155;52.364;6.580;2023-05-07T15:57:17;19.07;;;14.37;;
60306;SDS011;46155;52.364;6.580;2023-05-07T15:59:42;18.30;;;13.67;;
60306;SDS011;46155;52.364;6.580;2023-05-07T16:02:08;19.03;;;14.40;;
60306;SDS011;46155;52.364;6.580;2023-05-07T16:04:34;21.40;;;14.87;;
60306;SDS011;46155;52.364;6.580;2023-05-07T16:06:59;19.67;;;15.80;;
60306;SDS011;46155;52.364;6.580;2023-05-07T16:09:25;22.37;;;15.73;;
60306;SDS011;46155;52.364;6.580;2023-05-07T16:11:51;18.43;;;14.53;;
60306;SDS011;46155;52.364;6.580;2023-05-07T16:14:16;22.07;;;14.90;;
60306;SDS011;46155;52.364;6.580;2023-05-07T16:16:41;18.10;;;14.83;;
60306;SDS011;46155;52.364;6.580;2023-05-07T16:19:07;18.27;;;14.80;;
60306;SDS011;46155;52.364;6.580;2023-05-07T16:21:32;19.20;;;14.40;;
60306;SDS011;46155;52.364;6.580;2023-05-07T16:23:57;15.57;;;12.93;;
60306;SDS011;46155;52.364;6.580;2023-05-07T16:26:23;20.70;;;13.83;;
60306;SDS011;46155;52.364;6.580;2023-05-07T16:28:49;17.43;;;13.73;;
60306;SDS011;46155;52.364;6.580;2023-05-07T16:31:15;16.27;;;13.10;;
60306;SDS011;46155;52.364;6.580;2023-05-07T16:33:41;17.90;;;13.50;;
60306;SDS011;46155;52.364;6.580;2023-05-07T16:36:06;14.47;;;12.97;;
60306;SDS011;46155;52.364;6.580;2023-05-07T16:38:31;15.40;;;12.97;;
60306;SDS011;46155;52.364;6.580;2023-05-07T16:40:58;15.63;;;13.30;;
60306;SDS011;46155;52.364;6.580;2023-05-07T16:43:23;17.03;;;13.57;;
60306;SDS011;46155;52.364;6.580;2023-05-07T16:45:49;14.87;;;12.80;;
60306;SDS011;46155;52.364;6.580;2023-05-07T16:48:14;17.43;;;13.97;;
60306;SDS011;46155;52.364;6.580;2023-05-07T16:50:40;16.40;;;13.67;;
60306;SDS011;46155;52.364;6.580;2023-05-07T16:53:08;18.10;;;13.93;;
60306;SDS011;46155;52.364;6.580;2023-05-07T16:55:35;20.87;;;13.90;;
60306;SDS011;46155;52.364;6.580;2023-05-07T16:58:06;20.50;;;15.40;;
60306;SDS011;46155;52.364;6.580;2023-05-07T17:00:33;18.97;;;14.30;;
60306;SDS011;46155;52.364;6.580;2023-05-07T17:02:59;18.40;;;14.57;;
60306;SDS011;46155;52.364;6.580;2023-05-07T17:05:25;17.20;;;14.00;;
60306;SDS011;46155;52.364;6.580;2023-05-07T17:07:50;17.77;;;13.93;;
60306;SDS011;46155;52.364;6.580;2023-05-07T17:10:16;18.73;;;13.80;;
60306;SDS011;46155;52.364;6.580;2023-05-07T17:12:41;17.67;;;14.03;;
60306;SDS011;46155;52.364;6.580;2023-05-07T17:15:07;19.33;;;15.23;;
60306;SDS011;46155;52.364;6.580;2023-05-07T17:17:33;19.20;;;14.70;;
60306;SDS011;46155;52.364;6.580;2023-05-07T17:19:58;19.30;;;15.07;;
60306;SDS011;46155;52.364;6.580;2023-05-07T17:22:24;15.80;;;13.97;;
60306;SDS011;46155;52.364;6.580;2023-05-07T17:24:50;15.53;;;13.83;;
60306;SDS011;46155;52.364;6.580;2023-05-07T17:27:15;15.80;;;14.17;;
60306;SDS011;46155;52.364;6.580;2023-05-07T17:29:41;15.77;;;13.23;;
60306;SDS011;46155;52.364;6.580;2023-05-07T17:32:06;17.00;;;14.47;;
60306;SDS011;46155;52.364;6.580;2023-05-07T17:34:32;17.23;;;14.30;;
60306;SDS011;46155;52.364;6.580;2023-05-07T17:36:57;18.87;;;14.47;;